createdAt,value
2018-11-27T00:00:32.901Z,93.70
2018-11-27T00:01:38.146Z,93.70
2018-11-27T00:02:43.269Z,93.70
2018-11-27T00:03:55.117Z,93.90
2018-11-27T00:05:00.280Z,93.90
2018-11-27T00:06:22.049Z,93.90
2018-11-27T00:07:27.256Z,94.10
2018-11-27T00:08:32.483Z,94.10
2018-11-27T00:09:37.687Z,94.30
2018-11-27T00:10:42.782Z,94.30
2018-11-27T00:11:47.970Z,94.40
2018-11-27T00:12:53.539Z,94.40
2018-11-27T00:13:58.808Z,94.50
2018-11-27T00:15:06.188Z,94.50
2018-11-27T00:16:11.279Z,94.60
2018-11-27T00:17:17.320Z,94.60
2018-11-27T00:18:23.424Z,94.70
2018-11-27T00:19:29.201Z,94.80
2018-11-27T00:20:34.363Z,94.80
2018-11-27T00:21:39.564Z,95.00
2018-11-27T00:22:44.866Z,95.00
2018-11-27T00:23:50.764Z,95.20
2018-11-27T00:24:56.007Z,95.10
2018-11-27T00:26:01.170Z,95.00
2018-11-27T00:27:06.428Z,94.90
2018-11-27T00:28:11.608Z,94.80
2018-11-27T00:29:16.789Z,95.00
2018-11-27T00:30:22.766Z,94.90
2018-11-27T00:31:28.416Z,94.90
2018-11-27T00:32:33.670Z,95.00
2018-11-27T00:33:38.866Z,95.00
2018-11-27T00:34:44.078Z,95.10
2018-11-27T00:35:49.263Z,95.00
2018-11-27T00:36:54.615Z,95.00
2018-11-27T00:37:59.769Z,94.90
2018-11-27T00:39:06.476Z,94.90
2018-11-27T00:40:19.490Z,94.90
2018-11-27T00:41:24.761Z,95.00
2018-11-27T00:42:29.858Z,95.00
2018-11-27T00:43:34.981Z,95.20
2018-11-27T00:44:40.127Z,95.20
2018-11-27T00:45:45.304Z,95.10
2018-11-27T00:46:50.355Z,95.00
2018-11-27T00:47:55.534Z,95.20
2018-11-27T00:49:00.670Z,95.40
2018-11-27T00:50:09.156Z,95.40
2018-11-27T00:51:14.279Z,95.40
2018-11-27T00:52:19.447Z,95.40
2018-11-27T00:53:24.617Z,95.40
2018-11-27T00:54:29.768Z,95.40
2018-11-27T00:55:34.992Z,95.40
2018-11-27T00:56:40.090Z,95.30
2018-11-27T00:57:46.220Z,95.30
2018-11-27T00:58:51.651Z,95.40
2018-11-27T00:59:57.179Z,95.80
2018-11-27T01:01:02.461Z,95.40
2018-11-27T01:02:07.999Z,95.40
2018-11-27T01:03:13.967Z,95.60
2018-11-27T01:04:19.231Z,95.50
2018-11-27T01:05:25.512Z,95.60
2018-11-27T01:06:31.234Z,95.50
2018-11-27T01:07:36.491Z,95.50
2018-11-27T01:08:41.675Z,95.60
2018-11-27T01:09:47.306Z,95.50
2018-11-27T01:10:56.805Z,95.50
2018-11-27T01:12:02.442Z,95.60
2018-11-27T01:13:07.992Z,95.90
2018-11-27T01:14:13.344Z,95.60
2018-11-27T01:15:18.783Z,95.40
2018-11-27T01:16:24.160Z,95.50
2018-11-27T01:17:30.132Z,95.60
2018-11-27T01:18:35.553Z,95.60
2018-11-27T01:19:40.738Z,95.50
2018-11-27T01:20:45.827Z,95.40
2018-11-27T01:21:51.026Z,95.50
2018-11-27T01:22:56.164Z,95.50
2018-11-27T01:24:01.435Z,95.50
2018-11-27T01:25:06.886Z,95.60
2018-11-27T01:26:12.048Z,95.60
2018-11-27T01:27:17.235Z,95.60
2018-11-27T01:28:22.617Z,95.60
2018-11-27T01:29:27.894Z,95.60
2018-11-27T01:30:33.072Z,95.60
2018-11-27T01:31:39.056Z,95.60
2018-11-27T01:32:44.928Z,95.70
2018-11-27T01:33:49.956Z,95.60
2018-11-27T01:34:55.585Z,95.70
2018-11-27T01:36:00.812Z,95.70
2018-11-27T01:37:06.188Z,95.80
2018-11-27T01:38:11.261Z,95.90
2018-11-27T01:39:16.756Z,95.90
2018-11-27T01:40:24.788Z,96.00
2018-11-27T01:41:30.023Z,96.10
2018-11-27T01:42:35.221Z,96.20
2018-11-27T01:43:40.276Z,96.40
2018-11-27T01:44:45.959Z,96.50
2018-11-27T01:45:51.406Z,96.40
2018-11-27T01:46:56.485Z,96.40
2018-11-27T01:48:01.642Z,96.30
2018-11-27T01:49:07.640Z,96.40
2018-11-27T01:50:14.741Z,96.40
2018-11-27T01:51:19.865Z,96.50
2018-11-27T01:52:24.967Z,96.60
2018-11-27T01:53:30.084Z,96.60
2018-11-27T01:54:35.355Z,96.60
2018-11-27T01:55:40.642Z,96.70
2018-11-27T01:56:45.737Z,96.80
2018-11-27T01:57:50.977Z,96.80
2018-11-27T01:58:56.182Z,96.90
2018-11-27T02:00:01.363Z,96.80
2018-11-27T02:01:07.243Z,96.90
2018-11-27T02:02:12.364Z,96.80
2018-11-27T02:03:17.374Z,96.80
2018-11-27T02:04:22.468Z,96.70
2018-11-27T02:05:28.084Z,96.80
2018-11-27T02:06:33.288Z,96.90
2018-11-27T02:07:38.527Z,97.00
2018-11-27T02:08:43.621Z,96.80
2018-11-27T02:09:48.720Z,96.80
2018-11-27T02:10:53.838Z,96.70
2018-11-27T02:11:58.999Z,96.70
2018-11-27T02:13:04.376Z,96.70
2018-11-27T02:16:39.167Z,96.70
2018-11-27T02:17:44.297Z,96.70
2018-11-27T02:18:49.613Z,96.70
2018-11-27T02:19:54.660Z,96.70
2018-11-27T02:21:00.475Z,96.80
2018-11-27T02:22:05.871Z,96.70
2018-11-27T02:23:11.193Z,96.60
2018-11-27T02:24:16.380Z,96.60
2018-11-27T02:25:23.751Z,96.60
2018-11-27T02:26:28.977Z,96.60
2018-11-27T02:27:34.012Z,96.60
2018-11-27T02:28:39.009Z,96.60
2018-11-27T02:29:44.116Z,96.50
2018-11-27T02:30:49.125Z,96.60
2018-11-27T02:31:54.150Z,96.60
2018-11-27T02:32:59.175Z,96.70
2018-11-27T02:34:05.084Z,96.70
2018-11-27T02:35:11.901Z,96.70
2018-11-27T02:36:17.088Z,96.70
2018-11-27T02:39:51.708Z,96.80
2018-11-27T02:40:57.764Z,96.80
2018-11-27T02:42:03.277Z,96.80
2018-11-27T02:43:08.443Z,96.80
2018-11-27T02:44:13.634Z,96.70
2018-11-27T02:45:20.133Z,96.70
2018-11-27T02:46:25.402Z,96.80
2018-11-27T02:47:30.644Z,96.80
2018-11-27T02:48:35.916Z,96.80
2018-11-27T02:49:41.015Z,96.80
2018-11-27T02:50:46.326Z,97.00
2018-11-27T02:51:52.653Z,96.90
2018-11-27T02:52:58.168Z,96.90
2018-11-27T02:54:03.325Z,96.90
2018-11-27T02:55:13.428Z,96.90
2018-11-27T02:56:18.568Z,96.90
2018-11-27T02:57:24.053Z,96.90
2018-11-27T02:58:29.203Z,96.80
2018-11-27T02:59:34.328Z,96.80
2018-11-27T03:00:39.468Z,96.90
2018-11-27T03:01:44.580Z,96.80
2018-11-27T03:02:49.717Z,96.80
2018-11-27T03:03:57.510Z,96.80
2018-11-27T03:05:02.824Z,96.70
2018-11-27T03:06:08.013Z,96.70
2018-11-27T03:07:13.168Z,96.80
2018-11-27T03:08:18.340Z,96.80
2018-11-27T03:09:24.569Z,96.80
2018-11-27T03:10:30.504Z,96.90
2018-11-27T03:11:35.641Z,96.80
2018-11-27T03:12:41.516Z,96.80
2018-11-27T03:13:46.713Z,96.80
2018-11-27T03:14:51.827Z,96.80
2018-11-27T03:15:56.992Z,96.80
2018-11-27T03:17:02.149Z,96.80
2018-11-27T03:18:07.758Z,97.00
2018-11-27T03:19:13.296Z,97.20
2018-11-27T03:20:18.856Z,97.20
2018-11-27T03:21:24.344Z,97.10
2018-11-27T03:22:29.440Z,97.00
2018-11-27T03:23:34.553Z,96.90
2018-11-27T03:24:39.633Z,97.00
2018-11-27T03:25:45.576Z,96.80
2018-11-27T03:26:50.661Z,97.10
2018-11-27T03:27:56.549Z,97.00
2018-11-27T03:29:01.693Z,97.00
2018-11-27T03:30:09.528Z,97.00
2018-11-27T03:31:14.665Z,97.00
2018-11-27T03:32:19.777Z,97.00
2018-11-27T03:33:24.784Z,97.10
2018-11-27T03:34:29.879Z,97.10
2018-11-27T03:35:35.168Z,97.00
2018-11-27T03:36:40.344Z,96.90
2018-11-27T03:37:47.440Z,96.90
2018-11-27T03:38:52.304Z,97.00
2018-11-27T03:39:57.396Z,97.10
2018-11-27T03:41:02.489Z,97.20
2018-11-27T03:42:07.583Z,97.10
2018-11-27T03:43:12.756Z,97.00
2018-11-27T03:44:17.889Z,97.00
2018-11-27T03:45:23.738Z,96.90
2018-11-27T03:46:28.965Z,97.00
2018-11-27T03:47:34.607Z,96.80
2018-11-27T03:48:39.629Z,96.70
2018-11-27T03:49:44.793Z,96.70
2018-11-27T03:50:49.932Z,96.70
2018-11-27T03:51:56.097Z,96.70
2018-11-27T03:53:03.739Z,96.60
2018-11-27T03:54:09.452Z,96.70
2018-11-27T03:55:15.097Z,96.70
2018-11-27T03:56:20.243Z,96.80
2018-11-27T03:57:25.439Z,96.60
2018-11-27T03:58:30.598Z,96.70
2018-11-27T03:59:35.836Z,96.90
2018-11-27T04:00:40.932Z,96.90
2018-11-27T04:01:48.101Z,96.80
2018-11-27T04:03:24.023Z,96.70
2018-11-27T04:04:29.180Z,96.80
2018-11-27T04:05:35.030Z,96.90
2018-11-27T04:06:42.480Z,96.70
2018-11-27T04:07:47.688Z,96.50
2018-11-27T04:08:53.781Z,96.50
2018-11-27T04:09:58.942Z,96.50
2018-11-27T04:11:04.633Z,96.50
2018-11-27T04:12:09.980Z,96.50
2018-11-27T04:13:15.808Z,96.40
2018-11-27T04:14:21.058Z,96.40
2018-11-27T04:15:26.181Z,96.40
2018-11-27T04:16:31.296Z,96.40
2018-11-27T04:17:36.473Z,96.60
2018-11-27T04:18:41.537Z,96.50
2018-11-27T04:19:46.739Z,96.40
2018-11-27T04:20:51.942Z,96.40
2018-11-27T04:21:57.367Z,96.40
2018-11-27T04:23:02.533Z,96.40
2018-11-27T04:24:07.880Z,96.40
2018-11-27T04:25:15.018Z,96.70
2018-11-27T04:26:20.161Z,96.40
2018-11-27T04:27:25.303Z,96.40
2018-11-27T04:28:30.613Z,96.40
2018-11-27T04:29:35.892Z,96.40
2018-11-27T04:30:41.015Z,96.40
2018-11-27T04:31:46.593Z,96.40
2018-11-27T04:32:51.802Z,96.40
2018-11-27T04:33:58.231Z,96.40
2018-11-27T04:35:04.794Z,96.40
2018-11-27T04:36:10.998Z,96.40
2018-11-27T04:37:16.104Z,96.50
2018-11-27T04:38:21.262Z,96.60
2018-11-27T04:39:27.316Z,96.60
2018-11-27T04:40:32.651Z,96.50
2018-11-27T04:41:37.751Z,96.50
2018-11-27T04:42:42.824Z,96.40
2018-11-27T04:43:48.404Z,96.30
2018-11-27T04:44:53.466Z,96.40
2018-11-27T04:45:58.540Z,96.40
2018-11-27T04:47:03.700Z,96.40
2018-11-27T04:48:09.549Z,96.40
2018-11-27T04:49:16.080Z,96.40
2018-11-27T04:50:21.385Z,96.40
2018-11-27T04:51:26.567Z,96.30
2018-11-27T04:52:31.660Z,96.20
2018-11-27T04:53:39.685Z,96.20
2018-11-27T04:54:50.030Z,96.20
2018-11-27T04:55:55.227Z,96.20
2018-11-27T04:57:00.443Z,96.20
2018-11-27T04:58:06.688Z,96.10
2018-11-27T04:59:11.735Z,96.20
2018-11-27T05:00:18.973Z,96.20
2018-11-27T05:01:25.844Z,96.30
2018-11-27T05:02:32.292Z,96.30
2018-11-27T05:03:39.377Z,96.70
2018-11-27T05:04:44.772Z,96.10
2018-11-27T05:05:49.935Z,96.00
2018-11-27T05:06:56.040Z,96.00
2018-11-27T05:08:01.196Z,96.00
2018-11-27T05:09:11.164Z,95.90
2018-11-27T05:10:17.703Z,96.00
2018-11-27T05:11:22.940Z,96.00
2018-11-27T05:12:28.067Z,96.20
2018-11-27T05:13:33.216Z,96.20
2018-11-27T05:14:38.295Z,96.20
2018-11-27T05:15:43.394Z,96.20
2018-11-27T05:16:48.473Z,96.20
2018-11-27T05:17:57.882Z,96.10
2018-11-27T05:19:03.891Z,96.10
2018-11-27T05:20:11.273Z,96.20
2018-11-27T05:21:16.449Z,96.20
2018-11-27T05:22:24.097Z,96.20
2018-11-27T05:23:29.286Z,96.20
2018-11-27T05:24:34.456Z,96.30
2018-11-27T05:25:40.559Z,96.30
2018-11-27T05:26:47.405Z,96.20
2018-11-27T05:27:55.746Z,96.10
2018-11-27T05:29:01.735Z,96.00
2018-11-27T05:30:12.495Z,96.20
2018-11-27T05:31:18.308Z,96.30
2018-11-27T05:32:23.469Z,96.60
2018-11-27T05:33:29.072Z,97.10
2018-11-27T05:34:34.248Z,96.90
2018-11-27T05:35:39.368Z,96.80
2018-11-27T05:36:45.532Z,96.80
2018-11-27T05:37:51.695Z,96.70
2018-11-27T05:38:56.851Z,96.50
2018-11-27T05:40:02.091Z,96.50
2018-11-27T05:41:07.199Z,96.40
2018-11-27T05:42:13.098Z,96.30
2018-11-27T05:43:18.216Z,96.20
2018-11-27T05:44:23.308Z,96.30
2018-11-27T05:45:28.957Z,96.30
2018-11-27T05:46:34.083Z,96.30
2018-11-27T05:47:39.355Z,96.30
2018-11-27T05:48:44.456Z,96.50
2018-11-27T05:49:50.442Z,96.30
2018-11-27T05:50:55.508Z,96.30
2018-11-27T05:52:00.623Z,96.30
2018-11-27T05:53:05.960Z,96.50
2018-11-27T05:54:11.232Z,96.70
2018-11-27T05:55:16.792Z,96.50
2018-11-27T05:56:21.897Z,96.40
2018-11-27T05:57:27.799Z,96.40
2018-11-27T05:58:33.042Z,96.50
2018-11-27T05:59:38.189Z,96.60
2018-11-27T06:00:43.322Z,96.60
2018-11-27T06:01:48.691Z,96.50
2018-11-27T06:02:58.052Z,96.30
2018-11-27T06:04:03.557Z,96.30
2018-11-27T06:05:16.545Z,96.30
2018-11-27T06:06:21.760Z,96.60
2018-11-27T06:07:27.035Z,96.60
2018-11-27T06:08:32.911Z,96.70
2018-11-27T06:09:38.225Z,96.80
2018-11-27T06:10:43.523Z,96.80
2018-11-27T06:11:50.248Z,96.50
2018-11-27T06:12:55.408Z,96.50
2018-11-27T06:14:01.086Z,96.60
2018-11-27T06:15:08.259Z,96.70
2018-11-27T06:16:13.455Z,96.60
2018-11-27T06:17:19.734Z,96.40
2018-11-27T06:18:24.921Z,96.20
2018-11-27T06:19:30.977Z,96.40
2018-11-27T06:20:36.131Z,96.50
2018-11-27T06:21:41.202Z,96.60
2018-11-27T06:22:46.275Z,96.40
2018-11-27T06:23:52.285Z,96.40
2018-11-27T06:24:57.525Z,96.30
2018-11-27T06:26:02.712Z,96.30
2018-11-27T06:27:08.843Z,96.40
2018-11-27T06:28:13.899Z,96.40
2018-11-27T06:29:19.107Z,96.60
2018-11-27T06:30:25.601Z,96.50
2018-11-27T06:31:30.627Z,96.30
2018-11-27T06:32:35.755Z,96.40
2018-11-27T06:33:43.822Z,96.60
2018-11-27T06:34:49.904Z,96.50
2018-11-27T06:35:55.884Z,96.50
2018-11-27T06:37:01.960Z,96.60
2018-11-27T06:38:09.266Z,97.00
2018-11-27T06:39:14.699Z,96.70
2018-11-27T06:40:23.261Z,96.80
2018-11-27T06:41:29.367Z,96.50
2018-11-27T06:42:34.840Z,96.50
2018-11-27T06:43:40.083Z,96.70
2018-11-27T06:44:45.164Z,96.60
2018-11-27T06:45:50.331Z,96.60
2018-11-27T06:46:55.764Z,96.80
2018-11-27T06:48:00.907Z,96.90
2018-11-27T06:49:07.515Z,96.80
2018-11-27T06:50:14.376Z,96.80
2018-11-27T06:51:19.477Z,96.70
2018-11-27T06:52:24.610Z,96.80
2018-11-27T06:53:29.934Z,96.90
2018-11-27T06:54:35.060Z,97.20
2018-11-27T06:55:40.188Z,97.40
2018-11-27T06:56:46.306Z,97.40
2018-11-27T06:57:52.334Z,97.40
2018-11-27T06:58:57.420Z,97.20
2018-11-27T07:00:02.496Z,97.00
2018-11-27T07:01:07.611Z,97.10
2018-11-27T07:02:13.724Z,97.10
2018-11-27T07:09:24.683Z,96.70
2018-11-27T07:10:33.975Z,96.90
2018-11-27T07:11:39.173Z,96.80
2018-11-27T07:12:44.275Z,97.00
2018-11-27T07:13:49.403Z,96.90
2018-11-27T07:14:54.768Z,96.90
2018-11-27T07:16:00.848Z,96.70
2018-11-27T07:17:06.060Z,96.80
2018-11-27T07:18:11.257Z,96.70
2018-11-27T07:19:16.693Z,96.70
2018-11-27T07:20:21.938Z,96.70
2018-11-27T07:21:27.097Z,96.60
2018-11-27T07:22:32.249Z,96.80
2018-11-27T07:23:37.872Z,96.90
2018-11-27T07:24:43.255Z,97.10
2018-11-27T07:25:48.465Z,97.20
2018-11-27T07:26:53.887Z,97.10
2018-11-27T07:27:59.127Z,96.90
2018-11-27T07:29:05.211Z,96.80
2018-11-27T07:30:15.820Z,96.70
2018-11-27T07:31:21.441Z,96.70
2018-11-27T07:32:26.640Z,96.60
2018-11-27T07:33:31.819Z,96.60
2018-11-27T07:34:37.353Z,96.80
2018-11-27T07:35:42.561Z,97.10
2018-11-27T07:36:47.982Z,97.20
2018-11-27T07:37:53.139Z,97.20
2018-11-27T07:38:58.326Z,97.10
2018-11-27T07:40:03.516Z,96.90
2018-11-27T07:41:08.738Z,97.00
2018-11-27T07:42:14.838Z,97.00
2018-11-27T07:43:19.983Z,96.90
2018-11-27T07:44:25.228Z,96.80
2018-11-27T07:45:34.008Z,96.90
2018-11-27T07:46:39.366Z,96.90
2018-11-27T07:47:44.564Z,97.00
2018-11-27T07:48:49.700Z,97.20
2018-11-27T07:49:54.850Z,96.80
2018-11-27T07:51:00.014Z,96.80
2018-11-27T07:52:05.349Z,96.70
2018-11-27T07:53:10.586Z,96.70
2018-11-27T07:54:15.714Z,96.70
2018-11-27T07:55:23.460Z,96.70
2018-11-27T07:56:28.732Z,96.60
2018-11-27T07:57:33.888Z,96.70
2018-11-27T07:58:39.065Z,96.40
2018-11-27T07:59:44.319Z,96.40
2018-11-27T08:00:50.095Z,96.40
2018-11-27T08:01:55.247Z,96.40
2018-11-27T08:03:00.554Z,96.50
2018-11-27T08:04:05.785Z,96.40
2018-11-27T08:05:18.962Z,96.30
2018-11-27T08:06:25.841Z,96.50
2018-11-27T08:07:30.915Z,96.30
2018-11-27T08:08:36.188Z,96.20
2018-11-27T08:09:41.405Z,96.20
2018-11-27T08:10:47.874Z,96.50
2018-11-27T08:11:53.044Z,96.00
2018-11-27T08:12:58.418Z,96.00
2018-11-27T08:14:03.515Z,96.00
2018-11-27T08:15:13.148Z,95.90
2018-11-27T08:16:19.054Z,95.80
2018-11-27T08:17:24.180Z,95.80
2018-11-27T08:18:29.316Z,95.90
2018-11-27T08:19:34.399Z,96.20
2018-11-27T08:20:39.582Z,96.10
2018-11-27T08:21:45.724Z,95.90
2018-11-27T08:22:50.799Z,95.70
2018-11-27T08:23:56.033Z,95.70
2018-11-27T08:25:01.860Z,95.70
2018-11-27T08:26:07.722Z,95.70
2018-11-27T08:27:12.869Z,95.80
2018-11-27T08:28:18.349Z,96.10
2018-11-27T08:29:23.533Z,96.20
2018-11-27T08:30:29.380Z,96.20
2018-11-27T08:31:34.773Z,96.00
2018-11-27T08:32:40.088Z,96.10
2018-11-27T08:33:45.257Z,96.50
2018-11-27T08:34:50.929Z,96.80
2018-11-27T08:35:56.040Z,96.90
2018-11-27T08:37:01.234Z,96.70
2018-11-27T08:38:06.599Z,96.90
2018-11-27T08:39:11.747Z,96.80
2018-11-27T08:40:17.796Z,96.70
2018-11-27T08:41:23.971Z,96.40
2018-11-27T08:42:28.133Z,96.30
2018-11-27T08:43:34.252Z,96.20
2018-11-27T08:44:39.339Z,96.20
2018-11-27T08:45:44.496Z,96.00
2018-11-27T08:46:49.643Z,96.10
2018-11-27T08:47:55.801Z,96.30
2018-11-27T08:49:00.870Z,96.30
2018-11-27T08:50:13.553Z,96.40
2018-11-27T08:51:18.726Z,96.30
2018-11-27T08:52:24.716Z,96.20
2018-11-27T08:53:29.877Z,96.10
2018-11-27T08:54:34.964Z,96.20
2018-11-27T08:55:44.521Z,96.30
2018-11-27T08:56:49.909Z,96.30
2018-11-27T08:57:55.533Z,96.10
2018-11-27T08:59:00.788Z,96.00
2018-11-27T09:00:11.240Z,96.00
2018-11-27T09:01:16.373Z,96.20
2018-11-27T09:02:21.567Z,96.20
2018-11-27T09:03:27.154Z,96.10
2018-11-27T09:04:32.415Z,96.20
2018-11-27T09:05:37.639Z,96.10
2018-11-27T09:06:43.310Z,96.20
2018-11-27T09:07:48.844Z,96.50
2018-11-27T09:08:54.008Z,96.30
2018-11-27T09:09:59.238Z,96.20
2018-11-27T09:11:04.428Z,96.30
2018-11-27T09:12:09.652Z,96.30
2018-11-27T09:13:15.318Z,96.20
2018-11-27T09:14:20.484Z,96.40
2018-11-27T09:15:25.693Z,96.20
2018-11-27T09:16:30.797Z,96.10
2018-11-27T09:17:35.980Z,96.40
2018-11-27T09:18:41.249Z,96.20
2018-11-27T09:19:46.519Z,96.10
2018-11-27T09:20:51.820Z,95.80
2018-11-27T09:21:57.071Z,96.10
2018-11-27T09:23:02.279Z,96.20
2018-11-27T09:24:07.715Z,96.10
2018-11-27T09:25:14.075Z,95.90
2018-11-27T09:26:19.367Z,95.70
2018-11-27T09:27:24.639Z,95.70
2018-11-27T09:28:29.923Z,95.80
2018-11-27T09:29:35.738Z,95.90
2018-11-27T09:30:41.027Z,96.00
2018-11-27T09:31:46.347Z,95.90
2018-11-27T09:32:52.457Z,95.80
2018-11-27T09:33:57.658Z,95.90
2018-11-27T09:35:03.069Z,95.90
2018-11-27T09:36:08.447Z,95.80
2018-11-27T09:37:13.638Z,95.80
2018-11-27T09:38:19.673Z,96.00
2018-11-27T09:39:25.853Z,95.50
2018-11-27T09:40:32.074Z,95.50
2018-11-27T09:41:37.715Z,95.50
2018-11-27T09:42:43.032Z,95.50
2018-11-27T09:43:48.345Z,95.50
2018-11-27T09:44:53.581Z,95.60
2018-11-27T09:45:58.811Z,95.60
2018-11-27T09:47:04.108Z,95.50
2018-11-27T09:48:09.492Z,95.50
2018-11-27T09:49:14.798Z,95.60
2018-11-27T09:50:20.094Z,95.70
2018-11-27T09:51:25.328Z,95.70
2018-11-27T09:52:30.512Z,95.50
2018-11-27T09:53:35.756Z,95.40
2018-11-27T09:54:40.980Z,95.40
2018-11-27T09:55:46.169Z,95.40
2018-11-27T09:56:51.400Z,94.40
2018-11-27T09:57:59.009Z,93.50
2018-11-27T09:59:02.027Z,92.80
2018-11-27T10:00:10.802Z,92.80
2018-11-27T10:01:16.090Z,93.40
2018-11-27T10:02:21.401Z,93.50
2018-11-27T10:03:27.609Z,93.60
2018-11-27T10:04:32.875Z,93.90
2018-11-27T10:05:38.131Z,94.50
2018-11-27T10:06:43.392Z,94.90
2018-11-27T10:07:49.101Z,95.30
2018-11-27T10:08:55.548Z,95.50
2018-11-27T10:10:00.981Z,95.60
2018-11-27T10:11:07.281Z,95.30
2018-11-27T10:12:12.470Z,95.20
2018-11-27T10:13:17.734Z,95.00
2018-11-27T10:14:22.950Z,94.70
2018-11-27T10:15:29.095Z,94.70
2018-11-27T10:16:34.312Z,94.50
2018-11-27T10:17:39.523Z,93.50
2018-11-27T10:18:44.649Z,93.00
2018-11-27T10:19:50.014Z,92.90
2018-11-27T10:20:55.288Z,93.30
2018-11-27T10:22:00.442Z,93.50
2018-11-27T10:23:07.540Z,93.60
2018-11-27T10:24:12.747Z,93.10
2018-11-27T10:25:17.911Z,92.90
2018-11-27T10:26:23.193Z,92.70
2018-11-27T10:27:29.259Z,92.20
2018-11-27T10:28:34.683Z,91.80
2018-11-27T10:29:39.905Z,91.40
2018-11-27T10:30:45.105Z,91.10
2018-11-27T10:31:50.382Z,91.60
2018-11-27T10:32:58.552Z,91.80
2018-11-27T10:34:03.761Z,92.00
2018-11-27T10:35:11.120Z,92.70
2018-11-27T10:36:16.325Z,92.80
2018-11-27T10:37:21.607Z,92.50
2018-11-27T10:38:26.897Z,92.90
2018-11-27T10:39:32.195Z,92.60
2018-11-27T10:40:37.342Z,92.70
2018-11-27T10:41:42.576Z,92.90
2018-11-27T10:42:47.945Z,92.90
2018-11-27T10:43:53.110Z,92.70
2018-11-27T10:44:58.378Z,92.50
2018-11-27T10:46:03.565Z,92.50
2018-11-27T10:47:08.810Z,92.70
2018-11-27T10:48:14.536Z,92.80
2018-11-27T10:49:19.799Z,92.60
2018-11-27T10:50:25.129Z,92.70
2018-11-27T10:51:30.330Z,92.60
2018-11-27T10:52:35.721Z,92.70
2018-11-27T10:53:40.926Z,92.70
2018-11-27T10:54:46.180Z,92.60
2018-11-27T10:55:51.710Z,92.30
2018-11-27T10:56:57.078Z,92.00
2018-11-27T10:58:02.448Z,91.80
2018-11-27T10:59:07.907Z,91.70
2018-11-27T11:00:19.647Z,91.60
2018-11-27T11:01:29.940Z,91.60
2018-11-27T11:02:36.314Z,91.50
2018-11-27T11:03:41.851Z,91.60
2018-11-27T11:04:47.083Z,91.80
2018-11-27T11:05:52.809Z,91.90
2018-11-27T11:06:58.107Z,91.80
2018-11-27T11:08:03.438Z,91.20
2018-11-27T11:09:10.175Z,90.80
2018-11-27T11:10:15.411Z,90.90
2018-11-27T11:11:20.687Z,90.90
2018-11-27T11:12:25.957Z,91.10
2018-11-27T11:13:31.188Z,91.50
2018-11-27T11:14:36.418Z,91.40
2018-11-27T11:15:41.718Z,91.20
2018-11-27T11:16:47.080Z,91.10
2018-11-27T11:17:52.277Z,91.30
2018-11-27T11:18:57.414Z,91.30
2018-11-27T11:20:03.050Z,91.50
2018-11-27T11:21:08.196Z,91.60
2018-11-27T11:22:13.450Z,91.70
2018-11-27T11:23:20.009Z,91.70
2018-11-27T11:24:25.161Z,91.80
2018-11-27T11:25:30.310Z,91.70
2018-11-27T11:26:35.479Z,90.60
2018-11-27T11:27:40.647Z,88.80
2018-11-27T11:28:45.784Z,86.50
2018-11-27T11:29:51.061Z,85.00
2018-11-27T11:30:56.331Z,83.10
2018-11-27T11:32:03.102Z,81.90
2018-11-27T11:33:09.327Z,80.70
2018-11-27T11:34:14.610Z,77.80
2018-11-27T11:35:19.856Z,75.90
2018-11-27T11:36:25.119Z,76.70
2018-11-27T11:37:30.300Z,79.10
2018-11-27T11:38:35.597Z,80.90
2018-11-27T11:39:40.755Z,83.30
2018-11-27T11:40:45.916Z,85.60
2018-11-27T11:41:51.114Z,87.00
2018-11-27T11:42:57.529Z,87.20
2018-11-27T11:44:02.570Z,87.20
2018-11-27T11:45:08.776Z,85.80
2018-11-27T11:46:14.920Z,84.20
2018-11-27T11:47:20.155Z,82.30
2018-11-27T11:48:25.276Z,81.50
2018-11-27T11:49:30.447Z,80.90
2018-11-27T11:50:36.091Z,81.90
2018-11-27T11:51:41.177Z,82.80
2018-11-27T11:52:47.782Z,83.70
2018-11-27T11:53:53.333Z,84.40
2018-11-27T11:54:58.525Z,84.50
2018-11-27T11:56:03.724Z,84.00
2018-11-27T11:57:08.868Z,83.30
2018-11-27T11:58:14.024Z,82.30
2018-11-27T11:59:19.197Z,80.00
2018-11-27T12:00:28.712Z,76.80
2018-11-27T12:01:34.003Z,74.30
2018-11-27T12:02:39.181Z,70.80
2018-11-27T12:03:44.470Z,68.00
2018-11-27T12:04:49.671Z,65.20
2018-11-27T12:05:54.857Z,64.10
2018-11-27T12:07:00.095Z,63.10
2018-11-27T12:08:06.378Z,63.40
2018-11-27T12:09:11.641Z,64.60
2018-11-27T12:10:17.644Z,65.10
2018-11-27T12:11:22.870Z,65.70
2018-11-27T12:12:28.230Z,67.10
2018-11-27T12:13:33.462Z,68.00
2018-11-27T12:14:38.655Z,69.20
2018-11-27T12:15:47.942Z,70.40
2018-11-27T12:16:53.171Z,71.20
2018-11-27T12:17:58.365Z,72.50
2018-11-27T12:19:04.434Z,74.60
2018-11-27T12:20:12.377Z,76.60
2018-11-27T12:21:17.737Z,78.40
2018-11-27T12:22:22.864Z,79.70
2018-11-27T12:23:28.089Z,80.90
2018-11-27T12:24:33.312Z,81.90
2018-11-27T12:25:39.272Z,82.30
2018-11-27T12:26:44.594Z,82.60
2018-11-27T12:27:49.940Z,83.10
2018-11-27T12:28:55.117Z,84.00
2018-11-27T12:30:00.292Z,84.90
2018-11-27T12:31:06.423Z,85.60
2018-11-27T12:32:11.626Z,86.20
2018-11-27T12:33:17.145Z,86.50
2018-11-27T12:34:22.866Z,86.80
2018-11-27T12:35:28.332Z,86.80
2018-11-27T12:36:33.436Z,87.50
2018-11-27T12:37:38.752Z,89.00
2018-11-27T12:38:43.885Z,87.90
2018-11-27T12:39:49.012Z,87.80
2018-11-27T12:40:54.328Z,87.40
2018-11-27T12:41:59.388Z,87.00
2018-11-27T12:43:04.689Z,87.30
2018-11-27T12:44:09.829Z,87.50
2018-11-27T12:45:16.262Z,88.00
2018-11-27T12:46:21.378Z,87.80
2018-11-27T12:47:27.269Z,87.50
2018-11-27T12:48:32.408Z,87.30
2018-11-27T12:49:37.628Z,87.90
2018-11-27T12:50:45.442Z,87.90
2018-11-27T12:51:50.692Z,88.10
2018-11-27T12:52:55.845Z,88.40
2018-11-27T12:54:01.029Z,89.10
2018-11-27T12:55:07.561Z,89.10
2018-11-27T12:56:12.790Z,89.50
2018-11-27T12:57:17.885Z,89.60
2018-11-27T12:58:23.061Z,89.50
2018-11-27T12:59:28.278Z,89.00
2018-11-27T13:00:33.589Z,89.30
2018-11-27T13:01:38.828Z,89.80
2018-11-27T13:02:44.082Z,89.90
2018-11-27T13:03:49.363Z,90.20
2018-11-27T13:04:54.652Z,90.50
2018-11-27T13:05:59.870Z,90.70
2018-11-27T13:07:05.122Z,90.80
2018-11-27T13:08:16.620Z,91.30
2018-11-27T13:09:22.563Z,91.10
2018-11-27T13:10:27.721Z,91.20
2018-11-27T13:11:32.946Z,91.30
2018-11-27T13:12:38.186Z,91.40
2018-11-27T13:13:44.181Z,91.60
2018-11-27T13:14:49.999Z,91.60
2018-11-27T13:15:57.825Z,91.70
2018-11-27T13:17:03.103Z,91.60
2018-11-27T13:18:09.937Z,91.60
2018-11-27T13:19:15.418Z,91.60
2018-11-27T13:20:21.540Z,91.60
2018-11-27T13:21:27.216Z,91.60
2018-11-27T13:22:32.827Z,91.70
2018-11-27T13:23:38.099Z,91.60
2018-11-27T13:24:43.285Z,91.70
2018-11-27T13:25:48.449Z,92.00
2018-11-27T13:26:53.750Z,92.30
2018-11-27T13:27:58.960Z,92.50
2018-11-27T13:29:04.180Z,92.60
2018-11-27T13:30:17.056Z,92.60
2018-11-27T13:31:27.104Z,92.80
2018-11-27T13:32:32.573Z,93.00
2018-11-27T13:34:03.224Z,93.00
2018-11-27T13:35:11.893Z,93.20
2018-11-27T13:36:17.190Z,93.70
2018-11-27T13:37:22.457Z,93.50
2018-11-27T13:38:28.882Z,93.70
2018-11-27T13:39:38.215Z,93.80
2018-11-27T13:40:43.303Z,93.60
2018-11-27T13:41:48.336Z,93.60
2018-11-27T13:42:53.450Z,93.50
2018-11-27T13:43:59.972Z,93.50
2018-11-27T13:45:05.538Z,93.70
2018-11-27T13:46:11.885Z,93.70
2018-11-27T13:47:17.105Z,93.80
2018-11-27T13:48:22.232Z,93.90
2018-11-27T13:49:27.850Z,94.10
2018-11-27T13:50:32.597Z,94.30
2018-11-27T13:51:37.711Z,94.30
2018-11-27T13:52:43.020Z,94.40
2018-11-27T13:53:49.236Z,94.40
2018-11-27T13:54:54.669Z,94.30
2018-11-27T13:55:59.785Z,94.50
2018-11-27T13:57:05.041Z,94.50
2018-11-27T13:58:10.975Z,94.50
2018-11-27T13:59:16.255Z,94.60
2018-11-27T14:00:21.606Z,94.70
2018-11-27T14:01:26.848Z,94.80
2018-11-27T14:02:32.868Z,95.00
2018-11-27T14:03:38.005Z,95.20
2018-11-27T14:04:43.311Z,95.20
2018-11-27T14:05:48.497Z,95.10
2018-11-27T14:06:53.775Z,95.20
2018-11-27T14:07:58.976Z,95.40
2018-11-27T14:09:05.233Z,95.20
2018-11-27T14:10:11.510Z,95.20
2018-11-27T14:11:19.040Z,95.10
2018-11-27T14:12:22.348Z,95.00
2018-11-27T14:13:27.538Z,95.00
2018-11-27T14:14:32.721Z,94.90
2018-11-27T14:15:38.127Z,94.90
2018-11-27T14:16:43.356Z,94.90
2018-11-27T14:17:48.797Z,94.90